Arctic Village, AK

6:30 PM AKDT on September 03, 2015 (GMT -0800)
Arctic Village | | Change Station
CLOSE
Current Station
Airport
Location: Arctic Village,
Elevation: 2090 ft
Nearby Weather Stations

Elev 2090 ft 68.11 °N, 145.58 °W | Updated 14 minutes ago

Overcast
Overcast
48 °F
Feels Like 48 °F
N
14
Wind Variable Wind from East

Today
High -- | Low -- °F
--% Chance of Precip.
Yesterday
High -- | Low -- °F
Precip. -- in
6:15 AM 9:05 PM
Waning Gibbous, 64% visible
Pressure 30.04 in
Visibility 10.0 miles
Clouds Overcast 6000 ft
Dew Point 28 °F
Humidity 46%
Rainfall 0.00 in
Snow Depth Not available.
UV 0 out of 12
Pollen Not available.
Air Quality Not available.
Flu Activity Not available.
METAR PARC 040216Z AUTO 09012KT 10SM OVC060 09/M02 A3004 RMK AO1
Pressure 30.04 in
Visibility 10.0 miles
Clouds Overcast 6000 ft
Dew Point 28 °F
Humidity 46%
Rainfall 0.00 in
Snow Depth Not available.
UV 0 out of 12
Pollen Not available.
Air Quality Not available.
Flu Activity Not available.
METAR PARC 040216Z AUTO 09012KT 10SM OVC060 09/M02 A3004 RMK AO1

10-Day Weather Forecast

×

Almanac

Astronomy

Sep. 03, 2015 Rise Set
Actual Time
Civil Twilight
Nautical Twilight
Astronomical Twilight
Moon
Length of Visible Light
Length of Day
Tomorrow will be .
, % of the Moon is Illuminated

Today's Extremes

State Highs State Lows

Community

WunderPhotos

Upload Photos

1,852,106 photos uploaded!

WunderBlogs® & News

Nearby

Air Quality

  Air Quality AQ Index Pollutant
Not available.

Snow Depth

Station Depth Elevation

Earthquake Activity

City Distance Mag. Time & Date
Minimum magnitude displayed is 2.5.

Coastal Water Temperatures

Place Temperature

Stations

Nearby Weather Stations

Station Location Temp. Windchill Dew Point Humidity Wind Precip. Elev Updated Type